createdAt,value
2023-02-23T12:47:33.901Z,10.48
2023-02-23T12:50:13.362Z,9.12
2023-02-23T12:52:50.251Z,8.68
2023-02-23T12:55:30.080Z,8.33
2023-02-23T12:58:07.853Z,8.08
2023-02-23T13:00:47.417Z,7.84
2023-02-23T13:03:55.167Z,7.31
2023-02-23T13:06:35.406Z,7.15
2023-02-23T13:09:31.616Z,7.21
2023-02-23T13:12:24.159Z,7.41
2023-02-23T13:15:02.643Z,7.65
2023-02-23T13:17:41.844Z,7.39
2023-02-23T13:20:22.614Z,7.35
2023-02-23T13:22:57.673Z,6.96
2023-02-23T13:25:38.669Z,6.95
2023-02-23T13:28:14.993Z,7.09
2023-02-23T13:30:47.923Z,6.96
2023-02-23T13:33:34.973Z,6.79
2023-02-23T13:36:09.913Z,6.96
2023-02-23T13:38:47.837Z,6.86
2023-02-23T13:41:34.338Z,7.12
2023-02-23T13:44:11.583Z,7.01
2023-02-23T13:46:49.981Z,7.21
2023-02-23T13:49:36.537Z,7.39
2023-02-23T13:52:17.898Z,7.57
2023-02-23T13:54:57.103Z,7.95
2023-02-23T13:57:27.344Z,8.11
2023-02-23T13:59:56.726Z,7.93
2023-02-23T14:02:36.564Z,7.59
2023-02-23T14:05:15.131Z,8.10
2023-02-23T14:07:49.650Z,8.47
2023-02-23T14:10:23.409Z,8.67
2023-02-23T14:13:31.315Z,8.56
2023-02-23T14:16:19.003Z,8.18
2023-02-23T14:19:22.522Z,7.86
2023-02-23T14:21:58.389Z,7.78
2023-02-23T14:24:29.879Z,7.89
2023-02-23T14:27:40.231Z,7.57
2023-02-23T14:30:25.371Z,7.59
2023-02-23T14:32:54.817Z,7.81
2023-02-23T14:35:49.098Z,7.53
2023-02-23T14:38:46.808Z,7.75
2023-02-23T14:41:23.969Z,7.87
2023-02-23T14:43:55.820Z,7.89
2023-02-23T14:46:26.348Z,7.89
2023-02-23T14:49:02.094Z,7.95
2023-02-23T14:51:45.027Z,7.56
2023-02-23T14:54:23.650Z,7.28
2023-02-23T14:56:59.604Z,7.15
2023-02-23T14:59:29.786Z,7.27
2023-02-23T15:02:02.593Z,7.40
2023-02-23T15:04:31.932Z,7.47
2023-02-23T15:07:02.980Z,7.41
2023-02-23T15:09:36.881Z,7.27
2023-02-23T15:12:17.789Z,7.29
2023-02-23T15:14:48.970Z,7.09
2023-02-23T15:17:22.111Z,7.17
2023-02-23T15:20:06.036Z,7.21
2023-02-23T15:22:42.742Z,7.53
2023-02-23T15:25:20.654Z,7.76
2023-02-23T15:27:51.937Z,8.05
2023-02-23T15:30:30.847Z,7.77
2023-02-23T15:33:04.583Z,7.64
2023-02-23T15:35:44.501Z,7.81
2023-02-23T15:38:41.701Z,7.46
2023-02-23T15:41:26.487Z,7.36
2023-02-23T15:44:04.251Z,6.90
2023-02-23T15:46:34.285Z,7.39
2023-02-23T15:49:05.383Z,7.32
2023-02-23T15:51:39.288Z,7.07
2023-02-23T15:54:19.800Z,7.47
2023-02-23T15:56:51.187Z,7.29
2023-02-23T15:59:28.972Z,7.38
2023-02-23T16:02:00.181Z,7.08
2023-02-23T16:04:42.511Z,7.11
2023-02-23T16:07:20.417Z,6.99
2023-02-23T16:09:53.794Z,7.38
2023-02-23T16:12:29.192Z,7.22
2023-02-23T16:15:03.585Z,7.11
2023-02-23T16:17:44.087Z,7.21
2023-02-23T16:20:22.195Z,7.16
2023-02-23T16:22:53.732Z,7.00
2023-02-23T16:25:25.912Z,6.74
2023-02-23T16:28:02.862Z,6.72
2023-02-23T16:30:43.279Z,6.69
2023-02-23T16:33:19.917Z,6.61
2023-02-23T16:35:51.566Z,6.25
2023-02-23T16:38:26.208Z,6.09
2023-02-23T16:40:55.321Z,5.97
2023-02-23T16:43:24.019Z,6.06
2023-02-23T16:45:54.198Z,5.47
2023-02-23T16:48:24.216Z,5.55
2023-02-23T16:50:52.672Z,5.53
2023-02-23T16:53:22.918Z,5.41
2023-02-23T16:55:54.810Z,5.10
2023-02-23T16:58:27.125Z,5.38
2023-02-23T17:00:57.368Z,5.27
2023-02-23T17:03:28.025Z,5.59
2023-02-23T17:05:56.962Z,5.49
2023-02-23T17:08:26.303Z,5.24
2023-02-23T17:10:57.366Z,5.23
2023-02-23T17:13:29.078Z,4.81
2023-02-23T17:15:58.895Z,4.61
2023-02-23T17:18:30.000Z,4.57
2023-02-23T17:21:02.666Z,4.60
2023-02-23T17:23:42.501Z,4.45
2023-02-23T17:26:13.043Z,4.79
2023-02-23T17:28:42.395Z,4.68
2023-02-23T17:31:13.163Z,4.72
2023-02-23T17:33:42.516Z,4.22
2023-02-23T17:36:14.817Z,4.42
2023-02-23T17:38:45.132Z,4.53
2023-02-23T17:41:18.474Z,4.64
2023-02-23T17:43:47.756Z,4.51
2023-02-23T17:46:17.572Z,4.58
2023-02-23T17:48:47.755Z,4.68
2023-02-23T17:51:19.248Z,4.83
2023-02-23T17:53:48.654Z,4.43
2023-02-23T17:56:18.045Z,4.53
2023-02-23T17:58:46.796Z,4.56
2023-02-23T18:01:17.920Z,4.27
2023-02-23T18:03:47.887Z,4.52
2023-02-23T18:06:16.930Z,4.20
2023-02-23T18:08:45.538Z,4.42
2023-02-23T18:11:18.658Z,4.41
2023-02-23T18:13:48.368Z,4.21
2023-02-23T18:16:19.733Z,4.08
2023-02-23T18:18:50.329Z,4.15
2023-02-23T18:21:22.111Z,4.20
2023-02-23T18:23:52.026Z,4.35
2023-02-23T18:26:23.602Z,4.17
2023-02-23T18:28:52.595Z,4.17
2023-02-23T18:31:25.580Z,4.24
2023-02-23T18:33:54.840Z,4.37
2023-02-23T18:36:26.047Z,4.14
2023-02-23T18:38:55.692Z,4.34
2023-02-23T18:41:24.694Z,4.37
2023-02-23T18:43:53.273Z,4.12
2023-02-23T18:46:23.215Z,3.95
2023-02-23T18:48:52.748Z,3.78
2023-02-23T18:51:22.612Z,3.90
2023-02-23T18:53:51.768Z,4.16
2023-02-23T18:56:23.500Z,3.76
2023-02-23T18:58:52.802Z,3.86
2023-02-23T19:01:25.136Z,4.08
2023-02-23T19:03:55.913Z,3.89
2023-02-23T19:06:25.249Z,3.71
2023-02-23T19:08:56.521Z,4.01
2023-02-23T19:11:28.342Z,4.04
2023-02-23T19:13:59.288Z,3.81
2023-02-23T19:16:31.276Z,3.98
2023-02-23T19:19:02.941Z,3.92
2023-02-23T19:21:31.835Z,4.38
2023-02-23T19:24:02.454Z,4.02
2023-02-23T19:26:33.825Z,3.69
2023-02-23T19:29:02.595Z,4.06
2023-02-23T19:31:32.571Z,4.10
2023-02-23T19:34:03.327Z,3.98
2023-02-23T19:36:33.839Z,4.00
2023-02-23T19:39:10.388Z,3.90
2023-02-23T19:41:41.246Z,3.60
2023-02-23T19:44:10.164Z,3.56
2023-02-23T19:46:42.961Z,3.74
2023-02-23T19:49:11.815Z,3.88
2023-02-23T19:51:44.363Z,3.93
2023-02-23T19:54:13.161Z,3.88
2023-02-23T19:56:41.647Z,3.88
2023-02-23T19:59:10.154Z,3.73
2023-02-23T20:01:40.252Z,3.55
2023-02-23T20:04:09.990Z,3.64
2023-02-23T20:06:44.784Z,3.44
2023-02-23T20:09:14.030Z,3.74
2023-02-23T20:11:43.720Z,3.40
2023-02-23T20:14:12.896Z,3.57
2023-02-23T20:16:43.033Z,3.68
2023-02-23T20:19:11.907Z,3.64
2023-02-23T20:21:42.070Z,3.19
2023-02-23T20:24:12.720Z,3.49
2023-02-23T20:26:41.463Z,3.29
2023-02-23T20:29:17.925Z,3.30
2023-02-23T20:31:51.501Z,3.41
2023-02-23T20:34:24.702Z,3.35
2023-02-23T20:36:54.157Z,2.88
2023-02-23T20:39:22.861Z,2.83
2023-02-23T20:41:53.675Z,2.72
2023-02-23T20:44:24.963Z,2.86
2023-02-23T20:46:55.149Z,3.07
2023-02-23T20:49:24.397Z,3.08
2023-02-23T20:51:53.001Z,3.04
2023-02-23T20:54:22.117Z,3.08
2023-02-23T20:56:58.925Z,3.06
2023-02-23T20:59:30.688Z,2.98
2023-02-23T21:02:04.369Z,2.94
2023-02-23T21:04:35.761Z,2.44
2023-02-23T21:07:07.160Z,2.68
2023-02-23T21:09:35.563Z,2.73
2023-02-23T21:12:04.102Z,2.71
2023-02-23T21:14:34.506Z,2.46
2023-02-23T21:17:05.392Z,2.57
2023-02-23T21:19:34.084Z,2.21
2023-02-23T21:22:02.839Z,2.41
2023-02-23T21:24:33.886Z,2.28
2023-02-23T21:27:05.252Z,2.23
2023-02-23T21:29:33.758Z,2.18
2023-02-23T21:32:02.312Z,2.18
2023-02-23T21:34:32.281Z,2.11
2023-02-23T21:37:00.883Z,2.05
2023-02-23T21:39:29.750Z,2.11
2023-02-23T21:41:58.406Z,2.08
2023-02-23T21:44:26.927Z,1.92
2023-02-23T21:46:55.331Z,1.96
2023-02-23T21:49:23.700Z,1.90
2023-02-23T21:51:55.267Z,1.76
2023-02-23T21:54:23.640Z,1.37
2023-02-23T21:56:52.322Z,1.48
2023-02-23T21:59:20.658Z,1.52
2023-02-23T22:01:49.265Z,1.37
2023-02-23T22:04:17.731Z,1.22
2023-02-23T22:06:46.815Z,1.16
2023-02-23T22:09:16.669Z,1.02
2023-02-23T22:11:47.874Z,1.44
2023-02-23T22:14:18.197Z,1.36
2023-02-23T22:16:49.801Z,1.45
2023-02-23T22:19:19.404Z,1.35
2023-02-23T22:21:51.016Z,1.30
2023-02-23T22:24:20.753Z,1.25
2023-02-23T22:26:54.637Z,0.96
2023-02-23T22:29:24.768Z,0.98
2023-02-23T22:31:53.642Z,1.14
2023-02-23T22:34:22.912Z,1.14
2023-02-23T22:36:51.362Z,1.10
2023-02-23T22:39:21.123Z,1.09
2023-02-23T22:41:50.943Z,1.32
2023-02-23T22:44:22.687Z,1.14
2023-02-23T22:46:52.233Z,1.08
2023-02-23T22:49:21.063Z,0.74
2023-02-23T22:51:51.005Z,1.11
2023-02-23T22:54:24.049Z,0.98
2023-02-23T22:56:52.569Z,0.93
2023-02-23T22:59:20.939Z,1.00
2023-02-23T23:01:50.427Z,0.99
2023-02-23T23:04:21.994Z,1.08
2023-02-23T23:06:52.921Z,1.00
2023-02-23T23:09:22.844Z,0.82
2023-02-23T23:11:51.847Z,0.83
2023-02-23T23:14:20.397Z,1.09
2023-02-23T23:16:50.064Z,1.20
2023-02-23T23:19:24.769Z,0.71
2023-02-23T23:21:56.171Z,0.99
2023-02-23T23:24:26.582Z,1.07
2023-02-23T23:27:00.123Z,0.77
2023-02-23T23:29:30.668Z,0.93
2023-02-23T23:32:00.988Z,0.73
2023-02-23T23:34:33.688Z,0.64
2023-02-23T23:37:02.791Z,0.64
2023-02-23T23:39:32.697Z,0.43
2023-02-23T23:42:02.326Z,0.71
2023-02-23T23:44:31.048Z,0.74
2023-02-23T23:46:59.774Z,0.74
2023-02-23T23:49:28.259Z,0.79
2023-02-23T23:51:57.880Z,0.65
2023-02-23T23:54:29.992Z,1.01
2023-02-23T23:57:01.298Z,0.81
2023-02-23T23:59:29.945Z,0.96
